Time;durP1;ratioP1;P1;durP2;ratioP2;P2;SDS_P1;SDS_P2;PMS_P1;PMS_P2;Temp;Humidity;BMP_temperature;BMP_pressure;BME280_temperature;BME280_humidity;BME280_pressure;Samples;Min_cycle;Max_cycle;Signal;HPM_P1;HPM_P2
2023/10/21 00:00:41;;;;;;;0.38;0.03;;;;;;;30.94;35.07;96149.63;7396112;19;20021;-84
2023/10/21 00:03:07;;;;;;;0.10;0.10;;;;;;;29.89;36.70;96144.91;7393889;19;20015;-83
2023/10/21 00:05:33;;;;;;;0.10;0.10;;;;;;;28.53;38.05;96156.47;7392601;19;20920;-84
2023/10/21 00:07:59;;;;;;;0.10;0.10;;;;;;;28.15;38.65;96161.50;7392678;19;20011;-83
2023/10/21 00:10:25;;;;;;;0.10;0.10;;;;;;;29.95;36.67;96153.63;7392408;19;20006;-84
2023/10/21 00:12:52;;;;;;;0.10;0.10;;;;;;;29.16;37.61;96161.13;7393856;19;20006;-85
2023/10/21 00:15:18;;;;;;;0.10;0.10;;;;;;;28.41;38.64;96161.25;7389863;19;20038;-83
2023/10/21 00:17:44;;;;;;;0.10;0.10;;;;;;;28.92;38.24;96154.97;7393315;19;20006;-84
2023/10/21 00:20:12;;;;;;;0.10;0.10;;;;;;;28.62;38.47;96162.34;7394296;19;20011;-84
2023/10/21 00:22:38;;;;;;;0.10;0.00;;;;;;;29.87;37.45;96162.84;7391999;19;20011;-84
2023/10/21 00:25:05;;;;;;;0.10;0.10;;;;;;;28.92;38.09;96169.31;7391662;19;20474;-84
2023/10/21 00:27:31;;;;;;;0.10;0.10;;;;;;;29.01;38.28;96173.03;7390062;19;20011;-84
2023/10/21 00:29:57;;;;;;;0.17;0.17;;;;;;;27.91;39.64;96169.56;7394868;19;20504;-84
2023/10/21 00:32:23;;;;;;;0.10;0.10;;;;;;;28.16;39.36;96167.91;7392213;19;20492;-85
2023/10/21 00:34:49;;;;;;;0.10;0.00;;;;;;;28.15;38.91;96170.06;7393938;19;20378;-84
2023/10/21 00:37:15;;;;;;;0.52;0.45;;;;;;;29.35;37.49;96173.56;7392299;19;20010;-84
2023/10/21 00:39:42;;;;;;;0.15;0.10;;;;;;;29.94;37.14;96175.84;7391231;19;20035;-84
2023/10/21 00:42:09;;;;;;;0.10;0.10;;;;;;;30.48;36.61;96177.91;7393558;19;20014;-84
2023/10/21 00:44:35;;;;;;;0.20;0.15;;;;;;;30.74;36.21;96178.16;7392807;19;20085;-84
2023/10/21 00:47:01;;;;;;;0.20;0.20;;;;;;;31.08;35.39;96178.47;7391133;19;20074;-83
2023/10/21 00:49:31;;;;;;;0.10;0.10;;;;;;;29.58;37.09;96175.34;7392547;19;20037;-83
2023/10/21 00:51:59;;;;;;;0.10;0.10;;;;;;;28.54;38.36;96182.97;7393250;19;20058;-84
2023/10/21 00:54:26;;;;;;;0.10;0.00;;;;;;;29.23;38.03;96179.88;7389654;19;20047;-84
2023/10/21 00:56:56;;;;;;;0.45;0.43;;;;;;;30.72;36.42;96183.88;7373138;19;20019;-83
2023/10/21 00:59:25;;;;;;;0.10;0.10;;;;;;;33.27;33.79;96175.00;7392433;19;20143;-84
2023/10/21 01:01:51;;;;;;;0.63;0.20;;;;;;;33.37;32.85;96172.84;7391204;19;20049;-82
2023/10/21 01:04:18;;;;;;;0.20;0.20;;;;;;;33.59;33.20;96178.59;7392065;19;20472;-82
2023/10/21 01:06:44;;;;;;;0.20;0.20;;;;;;;33.35;32.79;96180.78;7391681;19;20014;-86
2023/10/21 01:09:13;;;;;;;2.15;0.38;;;;;;;32.65;33.32;96175.69;7393032;19;20477;-85
2023/10/21 01:11:40;;;;;;;0.10;0.10;;;;;;;29.73;36.07;96179.13;7394259;19;20027;-85
2023/10/21 01:14:07;;;;;;;0.05;0.05;;;;;;;29.53;36.58;96188.19;7391236;19;20023;-85
2023/10/21 01:16:33;;;;;;;1.98;1.10;;;;;;;29.07;37.49;96175.97;7388089;19;20027;-86
2023/10/21 01:18:59;;;;;;;0.10;0.10;;;;;;;30.19;36.52;96181.88;7392180;19;20006;-86
2023/10/21 01:21:25;;;;;;;0.20;0.20;;;;;;;28.31;38.62;96181.81;7389314;19;20047;-85
2023/10/21 01:23:52;;;;;;;0.00;0.00;;;;;;;28.34;38.64;96182.59;7392259;19;20453;-85
2023/10/21 01:26:18;;;;;;;0.10;0.10;;;;;;;27.92;38.67;96181.72;7390181;19;20614;-84
2023/10/21 01:28:45;;;;;;;0.10;0.10;;;;;;;28.78;37.86;96185.53;7388283;19;20010;-84
2023/10/21 01:31:12;;;;;;;0.10;0.10;;;;;;;29.56;37.50;96189.63;7389982;19;20017;-85
2023/10/21 01:33:38;;;;;;;0.10;0.10;;;;;;;28.47;38.06;96187.13;7389442;19;20039;-86
2023/10/21 01:36:05;;;;;;;0.25;0.25;;;;;;;29.20;37.43;96183.38;7389839;19;20106;-85
2023/10/21 01:38:31;;;;;;;0.10;0.00;;;;;;;30.30;36.47;96189.19;7390628;19;20014;-85
2023/10/21 01:40:57;;;;;;;0.10;0.10;;;;;;;32.62;33.57;96185.75;7390634;19;20763;-84
2023/10/21 01:43:23;;;;;;;0.10;0.10;;;;;;;30.70;35.90;96189.63;7389402;19;20120;-83
2023/10/21 01:45:49;;;;;;;0.10;0.00;;;;;;;31.91;34.22;96193.41;7388743;19;20474;-84
2023/10/21 01:48:15;;;;;;;0.10;0.00;;;;;;;31.41;34.80;96185.94;7389236;19;20010;-83
2023/10/21 01:50:41;;;;;;;0.10;0.10;;;;;;;31.78;34.39;96192.63;7389690;19;20017;-83
2023/10/21 01:53:08;;;;;;;0.10;0.00;;;;;;;31.74;34.14;96192.59;7389172;19;20007;-83
2023/10/21 01:55:34;;;;;;;0.10;0.10;;;;;;;30.47;35.90;96193.69;7387057;19;20491;-83
2023/10/21 01:58:01;;;;;;;0.10;0.10;;;;;;;30.88;35.27;96194.84;7389592;19;20054;-83
2023/10/21 02:00:27;;;;;;;0.10;0.10;;;;;;;31.19;34.92;96197.25;7388558;19;20018;-84
2023/10/21 02:02:55;;;;;;;0.10;0.00;;;;;;;29.42;36.18;96198.06;7387133;19;20015;-83
2023/10/21 02:05:23;;;;;;;0.10;0.10;;;;;;;29.20;36.33;96194.84;7387389;19;20006;-83
2023/10/21 02:07:50;;;;;;;0.10;0.00;;;;;;;29.12;36.79;96194.69;7389737;19;20010;-83
2023/10/21 02:10:19;;;;;;;0.10;0.10;;;;;;;28.86;37.74;96192.13;7389738;19;20544;-83
2023/10/21 02:12:45;;;;;;;0.10;0.10;;;;;;;31.46;34.75;96197.47;7388987;19;20014;-83
2023/10/21 02:15:12;;;;;;;0.10;0.00;;;;;;;30.42;35.64;96189.31;7386805;19;20027;-82
2023/10/21 02:17:39;;;;;;;0.35;0.35;;;;;;;29.56;36.34;96195.38;7385455;19;20006;-83
2023/10/21 02:20:07;;;;;;;0.10;0.10;;;;;;;28.31;37.31;96201.84;7388169;19;20015;-83
2023/10/21 02:22:33;;;;;;;0.10;0.00;;;;;;;30.59;35.72;96190.94;7392529;19;20473;-83
2023/10/21 02:24:59;;;;;;;0.10;0.10;;;;;;;30.83;35.34;96196.91;7387927;19;20014;-83
2023/10/21 02:27:25;;;;;;;0.10;0.10;;;;;;;31.03;34.97;96191.38;7389163;19;20018;-83
2023/10/21 02:29:51;;;;;;;0.10;0.10;;;;;;;30.33;36.05;96196.41;7388506;19;20030;-83
2023/10/21 02:32:17;;;;;;;0.10;0.10;;;;;;;30.95;34.99;96193.47;7387913;19;20014;-83
2023/10/21 02:34:44;;;;;;;0.10;0.00;;;;;;;30.85;35.22;96199.81;7387672;19;20078;-83
2023/10/21 02:37:10;;;;;;;0.10;0.10;;;;;;;31.46;34.61;96198.19;7387293;19;20025;-83
2023/10/21 02:39:37;;;;;;;0.10;0.10;;;;;;;31.46;34.39;96192.44;7389401;19;20086;-83
2023/10/21 02:42:04;;;;;;;0.10;0.00;;;;;;;32.03;33.69;96194.19;7388978;19;20430;-83
2023/10/21 02:44:30;;;;;;;0.10;0.10;;;;;;;30.87;34.80;96193.38;7388597;19;20007;-83
2023/10/21 02:46:56;;;;;;;0.10;0.10;;;;;;;30.32;35.12;96189.94;7387558;19;20014;-83
2023/10/21 02:49:22;;;;;;;0.10;0.10;;;;;;;30.49;35.09;96197.28;7385003;19;20006;-83
2023/10/21 02:51:49;;;;;;;0.10;0.00;;;;;;;29.56;36.23;96200.41;7387525;19;20006;-83
2023/10/21 02:54:16;;;;;;;0.10;0.10;;;;;;;28.84;37.18;96194.25;7388532;19;20007;-83
2023/10/21 02:56:43;;;;;;;0.10;0.10;;;;;;;29.81;36.09;96197.19;7386911;19;20014;-82
2023/10/21 02:59:09;;;;;;;0.10;0.10;;;;;;;28.29;38.10;96196.09;7388573;19;20043;-82
2023/10/21 03:01:35;;;;;;;0.10;0.00;;;;;;;28.58;37.43;96197.38;7386317;19;20109;-83
2023/10/21 03:04:01;;;;;;;0.10;0.10;;;;;;;31.00;34.88;96195.66;7385958;19;20396;-83
2023/10/21 03:06:27;;;;;;;0.10;0.10;;;;;;;29.12;36.80;96200.44;7385950;19;20044;-82
2023/10/21 03:08:53;;;;;;;0.10;0.10;;;;;;;28.39;37.32;96204.84;7388953;19;20061;-82
2023/10/21 03:11:19;;;;;;;0.10;0.10;;;;;;;29.20;36.86;96206.31;7386788;19;20010;-82
2023/10/21 03:13:45;;;;;;;0.10;0.00;;;;;;;28.64;37.24;96197.47;7386651;19;20006;-83
2023/10/21 03:16:16;;;;;;;0.10;0.10;;;;;;;28.74;37.10;96197.63;7387110;19;20026;-83
2023/10/21 03:18:45;;;;;;;0.10;0.10;;;;;;;29.23;36.69;96196.34;7387894;19;20003;-83
2023/10/21 03:21:11;;;;;;;0.10;0.10;;;;;;;29.92;36.09;96195.91;7388524;19;20092;-82
2023/10/21 03:23:38;;;;;;;0.10;0.00;;;;;;;29.21;36.89;96194.16;7386257;19;20607;-84
2023/10/21 03:26:06;;;;;;;0.10;0.10;;;;;;;30.10;36.02;96186.81;7386700;19;20010;-83
2023/10/21 03:28:32;;;;;;;0.10;0.10;;;;;;;28.30;38.05;96183.25;7389712;19;20130;-83
2023/10/21 03:31:00;;;;;;;0.10;0.10;;;;;;;28.36;37.73;96186.22;7389661;19;20010;-83
2023/10/21 03:33:28;;;;;;;0.10;0.10;;;;;;;27.38;39.09;96187.72;7385976;19;20022;-83
2023/10/21 03:35:56;;;;;;;0.10;0.10;;;;;;;26.81;39.39;96182.78;7385004;19;20015;-84
2023/10/21 03:38:23;;;;;;;0.10;0.00;;;;;;;28.16;38.28;96187.94;7385576;19;20321;-84
2023/10/21 03:40:58;;;;;;;0.20;0.20;;;;;;;30.21;35.98;96184.75;7388626;19;20103;-83
2023/10/21 03:43:26;;;;;;;0.10;0.10;;;;;;;31.08;34.93;96187.09;7385548;19;20015;-83
2023/10/21 03:45:53;;;;;;;0.10;0.10;;;;;;;31.24;34.62;96175.72;7387143;19;20010;-83
2023/10/21 03:48:20;;;;;;;0.10;0.03;;;;;;;31.33;34.50;96168.59;7384761;19;19999;-83
2023/10/21 03:50:47;;;;;;;0.10;0.00;;;;;;;32.59;32.78;96182.19;7387562;19;20015;-82
2023/10/21 03:53:14;;;;;;;0.10;0.00;;;;;;;28.45;37.15;96190.69;7392412;19;20014;-83
2023/10/21 03:55:41;;;;;;;0.10;0.00;;;;;;;29.46;35.95;96183.78;7392488;19;20655;-83
2023/10/21 03:58:07;;;;;;;0.10;0.10;;;;;;;30.01;35.67;96182.38;7394164;19;20069;-83
2023/10/21 04:00:34;;;;;;;0.10;0.10;;;;;;;30.68;34.97;96195.34;7394472;19;20059;-83
2023/10/21 04:03:00;;;;;;;0.10;0.00;;;;;;;29.66;35.55;96189.78;7395256;19;20023;-85
2023/10/21 04:05:26;;;;;;;0.10;0.00;;;;;;;28.82;36.87;96189.22;7392351;19;20006;-85
2023/10/21 04:07:55;;;;;;;0.20;0.20;;;;;;;28.75;36.91;96186.91;7392980;19;20035;-85
2023/10/21 04:10:21;;;;;;;0.28;0.28;;;;;;;28.90;36.95;96186.47;7393082;19;20040;-85
2023/10/21 04:12:47;;;;;;;0.10;0.10;;;;;;;28.90;36.66;96195.06;7395303;19;20038;-84
2023/10/21 04:15:13;;;;;;;0.10;0.10;;;;;;;28.35;37.31;96199.06;7393434;19;20036;-83
2023/10/21 04:17:40;;;;;;;0.10;0.10;;;;;;;28.36;37.74;96197.66;7390457;19;20095;-83
2023/10/21 04:20:07;;;;;;;0.10;0.10;;;;;;;28.99;36.58;96198.78;7394207;19;20013;-83
2023/10/21 04:22:33;;;;;;;0.10;0.10;;;;;;;28.81;36.88;96212.78;7392371;19;20078;-84
2023/10/21 04:25:01;;;;;;;0.10;0.10;;;;;;;28.42;37.55;96203.50;7391923;19;20026;-83
2023/10/21 04:27:27;;;;;;;0.63;0.35;;;;;;;28.86;36.98;96197.88;7389363;19;20531;-84
2023/10/21 04:29:53;;;;;;;0.10;0.10;;;;;;;29.87;36.11;96208.75;7393658;19;20013;-83
2023/10/21 04:32:19;;;;;;;0.10;0.00;;;;;;;29.90;35.82;96209.50;7393724;19;20573;-83
2023/10/21 04:34:46;;;;;;;0.10;0.00;;;;;;;28.90;36.79;96208.66;7395226;19;20010;-83
2023/10/21 04:37:12;;;;;;;0.10;0.00;;;;;;;29.13;36.67;96214.06;7392754;19;20015;-83
2023/10/21 04:39:39;;;;;;;0.10;0.10;;;;;;;29.66;35.99;96209.88;7389546;19;20452;-83
2023/10/21 04:42:05;;;;;;;0.10;0.10;;;;;;;27.98;37.62;96211.19;7387573;19;20108;-83
2023/10/21 04:44:32;;;;;;;0.10;0.10;;;;;;;28.21;37.27;96220.97;7386396;19;20013;-83
2023/10/21 04:46:58;;;;;;;0.10;0.10;;;;;;;27.10;39.13;96229.88;7388439;19;20017;-84
2023/10/21 04:49:25;;;;;;;0.10;0.10;;;;;;;27.33;38.99;96228.31;7388229;19;20022;-83
2023/10/21 04:51:51;;;;;;;0.10;0.10;;;;;;;26.66;39.47;96238.03;7387170;19;20380;-83
2023/10/21 04:54:17;;;;;;;0.10;0.00;;;;;;;27.13;38.78;96231.41;7391026;19;20010;-83
2023/10/21 04:56:43;;;;;;;0.10;0.03;;;;;;;30.18;35.78;96226.34;7393451;19;20045;-82
2023/10/21 04:59:09;;;;;;;0.10;0.10;;;;;;;31.83;34.17;96233.66;7393660;19;20026;-83
2023/10/21 05:01:36;;;;;;;0.35;0.35;;;;;;;32.86;32.90;96237.69;7390927;19;20101;-83
2023/10/21 05:04:02;;;;;;;0.38;0.10;;;;;;;32.39;33.13;96239.72;7390630;19;20021;-83
2023/10/21 05:06:28;;;;;;;0.10;0.10;;;;;;;32.05;33.40;96242.44;7393361;19;20092;-83
2023/10/21 05:08:55;;;;;;;0.10;0.10;;;;;;;33.02;32.36;96243.50;7391851;19;20078;-83
2023/10/21 05:11:21;;;;;;;0.10;0.10;;;;;;;32.31;32.98;96244.72;7390335;19;20010;-83
2023/10/21 05:13:47;;;;;;;0.10;0.00;;;;;;;32.12;33.21;96243.91;7391925;19;20066;-83
2023/10/21 05:16:13;;;;;;;0.10;0.10;;;;;;;32.41;32.51;96248.34;7391899;19;20006;-84
2023/10/21 05:18:39;;;;;;;0.10;0.00;;;;;;;32.55;32.79;96257.06;7391060;19;20040;-84
2023/10/21 05:21:08;;;;;;;0.10;0.10;;;;;;;34.55;30.78;96254.13;7391354;19;20501;-84
2023/10/21 05:23:34;;;;;;;0.10;0.10;;;;;;;34.24;30.58;96259.31;7389546;19;20022;-85
2023/10/21 05:26:01;;;;;;;0.10;0.10;;;;;;;34.61;30.90;96262.78;7390710;19;20039;-85
2023/10/21 05:28:27;;;;;;;0.10;0.10;;;;;;;36.34;29.29;96265.00;7389947;19;20010;-84
2023/10/21 05:30:53;;;;;;;0.10;0.10;;;;;;;35.04;29.98;96266.91;7390517;19;20006;-84
2023/10/21 05:33:19;;;;;;;0.10;0.10;;;;;;;35.69;29.26;96278.72;7388046;19;20016;-84
2023/10/21 05:35:45;;;;;;;0.10;0.00;;;;;;;38.02;27.37;96274.19;7389150;19;20010;-85
2023/10/21 05:38:11;;;;;;;0.10;0.10;;;;;;;38.41;27.11;96275.63;7389998;19;20469;-85
2023/10/21 05:40:37;;;;;;;0.10;0.10;;;;;;;39.06;26.29;96275.00;7391478;19;20019;-85
2023/10/21 05:43:03;;;;;;;0.10;0.00;;;;;;;39.38;26.23;96282.28;7391887;19;20015;-85
2023/10/21 05:45:30;;;;;;;0.10;0.00;;;;;;;39.71;25.69;96276.38;7390712;19;20007;-84
2023/10/21 05:47:56;;;;;;;0.10;0.00;;;;;;;39.75;25.61;96279.91;7392806;19;20002;-84
2023/10/21 05:50:24;;;;;;;0.10;0.10;;;;;;;39.96;25.59;96283.75;7388412;19;20010;-85
2023/10/21 05:52:51;;;;;;;0.10;0.10;;;;;;;40.09;25.30;96289.97;7389161;19;20031;-85
2023/10/21 05:55:18;;;;;;;0.10;0.10;;;;;;;40.04;24.67;96289.41;7387635;19;19995;-85
2023/10/21 05:57:45;;;;;;;0.10;0.10;;;;;;;39.83;25.26;96294.28;7389505;19;20011;-85
2023/10/21 06:00:12;;;;;;;0.10;0.08;;;;;;;39.75;24.78;96299.59;7390506;19;20011;-85
2023/10/21 06:02:38;;;;;;;0.10;0.10;;;;;;;39.51;25.38;96306.00;7388929;19;20062;-85
2023/10/21 06:05:05;;;;;;;0.10;0.10;;;;;;;39.54;24.84;96305.19;7389883;19;20026;-85
2023/10/21 06:07:31;;;;;;;0.10;0.00;;;;;;;39.19;25.05;96305.28;7389468;19;20469;-85
2023/10/21 06:09:58;;;;;;;0.10;0.10;;;;;;;38.96;25.42;96309.44;7391985;19;20469;-84
2023/10/21 06:12:24;;;;;;;0.10;0.00;;;;;;;38.90;25.32;96313.16;7390108;19;20018;-85
2023/10/21 06:14:51;;;;;;;0.10;0.10;;;;;;;39.09;25.13;96305.50;7389459;19;20487;-84
2023/10/21 06:17:17;;;;;;;0.10;0.10;;;;;;;39.60;24.71;96313.09;7387119;19;20010;-85
2023/10/21 06:19:44;;;;;;;0.10;0.10;;;;;;;39.73;24.59;96317.84;7389658;19;20006;-85
2023/10/21 06:22:12;;;;;;;0.10;0.10;;;;;;;39.90;24.62;96318.88;7388858;19;20015;-85
2023/10/21 06:24:39;;;;;;;0.32;0.32;;;;;;;40.06;24.39;96321.41;7390241;19;20018;-85
2023/10/21 06:27:07;;;;;;;0.10;0.00;;;;;;;40.14;24.65;96323.38;7389951;19;20016;-84
2023/10/21 06:29:34;;;;;;;0.47;0.32;;;;;;;37.69;25.87;96332.09;7389329;19;20009;-84
2023/10/21 06:32:04;;;;;;;0.20;0.20;;;;;;;36.90;26.64;96341.22;7388258;19;20026;-85
2023/10/21 06:34:30;;;;;;;0.10;0.10;;;;;;;36.13;27.20;96347.09;7387612;19;20011;-85
2023/10/21 06:36:56;;;;;;;0.10;0.10;;;;;;;36.00;27.02;96342.88;7387781;19;20015;-84
2023/10/21 06:39:22;;;;;;;0.10;0.10;;;;;;;34.81;28.23;96343.63;7388889;19;20425;-85
2023/10/21 06:41:49;;;;;;;0.10;0.10;;;;;;;34.90;28.49;96350.81;7389693;19;20010;-85
2023/10/21 06:44:16;;;;;;;0.10;0.10;;;;;;;34.80;28.21;96360.28;7387348;19;20010;-85
2023/10/21 06:46:43;;;;;;;0.50;0.35;;;;;;;34.02;28.93;96360.44;7389554;19;20006;-87
2023/10/21 06:49:09;;;;;;;0.10;0.10;;;;;;;33.87;29.08;96364.78;7388522;19;20009;-84
2023/10/21 06:51:36;;;;;;;0.10;0.10;;;;;;;33.64;29.75;96375.56;7386923;19;20078;-84
2023/10/21 06:54:05;;;;;;;0.50;0.30;;;;;;;34.24;28.95;96384.25;7391775;19;20011;-85
2023/10/21 06:56:32;;;;;;;0.10;0.10;;;;;;;33.14;30.18;96387.00;7385757;19;20027;-84
2023/10/21 06:58:59;;;;;;;0.10;0.10;;;;;;;32.12;30.83;96393.63;7387325;19;20030;-85
2023/10/21 07:01:25;;;;;;;0.30;0.20;;;;;;;31.57;31.37;96386.69;7390686;19;20010;-84
2023/10/21 07:03:53;;;;;;;0.10;0.10;;;;;;;30.80;32.69;96390.84;7390031;19;20002;-85
2023/10/21 07:06:20;;;;;;;0.10;0.00;;;;;;;31.17;32.07;96395.63;7387205;19;20022;-85
2023/10/21 07:08:47;;;;;;;0.10;0.10;;;;;;;31.18;32.09;96388.44;7388984;19;20017;-85
2023/10/21 07:11:13;;;;;;;0.10;0.10;;;;;;;30.43;32.84;96403.31;7389836;19;20453;-85
2023/10/21 07:13:39;;;;;;;1.95;0.10;;;;;;;28.67;34.73;96407.28;7386550;19;20011;-84
2023/10/21 07:16:06;;;;;;;0.10;0.10;;;;;;;29.91;33.76;96401.06;7386322;19;20011;-85
2023/10/21 07:18:32;;;;;;;0.57;0.43;;;;;;;29.66;34.12;96410.66;7385946;19;20021;-85
2023/10/21 07:20:59;;;;;;;0.73;0.70;;;;;;;29.31;34.81;96408.59;7386815;19;20525;-85
2023/10/21 07:23:25;;;;;;;0.20;0.20;;;;;;;29.92;34.15;96416.13;7388837;19;20095;-85
2023/10/21 07:25:51;;;;;;;0.20;0.20;;;;;;;30.30;33.93;96427.50;7390958;19;20015;-85
2023/10/21 07:28:18;;;;;;;0.32;0.17;;;;;;;31.23;32.76;96418.69;7393357;19;20018;-85
2023/10/21 07:30:44;;;;;;;0.10;0.00;;;;;;;31.33;32.78;96420.94;7398189;19;20025;-85
2023/10/21 07:33:10;;;;;;;0.20;0.20;;;;;;;31.79;32.19;96435.09;7394516;19;20015;-84
2023/10/21 07:35:38;;;;;;;0.10;0.10;;;;;;;31.60;32.31;96437.06;7390662;19;20002;-85
2023/10/21 07:38:04;;;;;;;0.38;0.28;;;;;;;30.51;33.49;96435.00;7397287;19;20022;-85
2023/10/21 07:40:30;;;;;;;0.10;0.10;;;;;;;30.68;33.58;96439.53;7396089;19;20010;-85
2023/10/21 07:42:57;;;;;;;0.35;0.35;;;;;;;32.72;31.34;96443.03;7395338;19;20022;-85
2023/10/21 07:45:24;;;;;;;0.10;0.10;;;;;;;32.13;32.30;96441.91;7394332;19;20006;-85
2023/10/21 07:47:50;;;;;;;0.40;0.30;;;;;;;32.13;31.94;96452.69;7393115;19;20512;-84
2023/10/21 07:50:17;;;;;;;0.10;0.10;;;;;;;31.68;32.99;96450.81;7394801;19;20010;-84
2023/10/21 07:52:43;;;;;;;0.10;0.00;;;;;;;31.91;32.13;96461.09;7395332;19;20509;-84
2023/10/21 07:55:12;;;;;;;0.10;0.10;;;;;;;31.75;32.76;96463.84;7394594;19;20015;-84
2023/10/21 07:57:41;;;;;;;0.10;0.10;;;;;;;31.20;33.23;96457.47;7395469;19;20039;-84
2023/10/21 08:00:08;;;;;;;0.10;0.03;;;;;;;31.79;32.63;96463.88;7396239;19;20014;-83
2023/10/21 08:02:34;;;;;;;0.10;0.10;;;;;;;32.09;32.09;96461.28;7394575;19;20016;-83
2023/10/21 08:05:01;;;;;;;0.35;0.20;;;;;;;32.20;32.34;96470.75;7395683;19;20025;-84
2023/10/21 08:07:27;;;;;;;0.10;0.10;;;;;;;31.80;32.56;96476.81;7390588;19;20015;-83
2023/10/21 08:09:53;;;;;;;1.20;0.43;;;;;;;31.75;32.74;96476.06;7397801;19;20022;-84
2023/10/21 08:12:19;;;;;;;0.45;0.45;;;;;;;30.78;33.82;96474.16;7393230;19;20010;-84
2023/10/21 08:14:45;;;;;;;0.10;0.10;;;;;;;29.63;34.91;96475.13;7391096;19;20010;-83
2023/10/21 08:17:11;;;;;;;0.10;0.10;;;;;;;34.20;30.55;96484.63;7392707;19;20035;-83
2023/10/21 08:19:37;;;;;;;0.32;0.20;;;;;;;35.27;29.85;96476.53;7393057;19;20029;-83
2023/10/21 08:22:05;;;;;;;0.10;0.10;;;;;;;34.83;30.10;96480.25;7393162;19;20040;-84
2023/10/21 08:24:32;;;;;;;0.45;0.30;;;;;;;36.12;28.87;96485.50;7391763;19;20029;-85
2023/10/21 08:26:59;;;;;;;5.03;0.45;;;;;;;36.78;28.31;96481.31;7392162;19;20532;-84
2023/10/21 08:29:25;;;;;;;0.10;0.10;;;;;;;37.67;27.44;96491.91;7388566;19;20450;-84
2023/10/21 08:31:51;;;;;;;0.45;0.22;;;;;;;37.93;26.86;96497.38;7384516;19;20014;-83
2023/10/21 08:34:17;;;;;;;1.55;1.20;;;;;;;38.11;26.69;96494.19;7387823;19;20021;-83
2023/10/21 08:36:46;;;;;;;0.20;0.20;;;;;;;38.24;26.83;96504.16;7389038;19;20010;-83
2023/10/21 08:39:12;;;;;;;0.30;0.20;;;;;;;38.47;26.29;96508.16;7393781;19;20073;-83
2023/10/21 08:41:39;;;;;;;0.35;0.13;;;;;;;38.59;26.08;96513.81;7388843;19;20007;-84
2023/10/21 08:44:07;;;;;;;0.10;0.10;;;;;;;39.29;26.11;96519.81;7389661;19;20027;-85
2023/10/21 08:46:34;;;;;;;0.10;0.10;;;;;;;40.00;25.41;96522.03;7390745;19;20022;-85
2023/10/21 08:49:05;;;;;;;2.05;0.57;;;;;;;39.72;25.49;96534.97;7393836;19;20016;-85
2023/10/21 08:51:35;;;;;;;0.10;0.00;;;;;;;39.23;25.47;96534.50;7388912;19;20369;-85
2023/10/21 08:54:03;;;;;;;0.10;0.10;;;;;;;38.86;25.63;96536.63;7392128;19;20023;-84
2023/10/21 08:56:31;;;;;;;0.85;0.15;;;;;;;39.21;25.41;96535.25;7388534;19;20535;-83
2023/10/21 08:58:57;;;;;;;0.10;0.00;;;;;;;39.02;25.50;96542.88;7391885;19;20496;-83
2023/10/21 09:01:24;;;;;;;0.10;0.10;;;;;;;38.93;25.54;96543.78;7390653;19;20013;-83
2023/10/21 09:03:50;;;;;;;0.10;0.00;;;;;;;38.98;25.26;96548.78;7393261;19;20010;-84
2023/10/21 09:06:19;;;;;;;0.10;0.10;;;;;;;38.76;25.28;96548.44;7391932;19;20015;-83
2023/10/21 09:08:47;;;;;;;0.10;0.10;;;;;;;39.74;24.83;96549.53;7393629;19;20066;-84
2023/10/21 09:11:24;;;;;;;0.10;0.10;;;;;;;40.38;24.57;96553.19;7392141;19;20003;-83
2023/10/21 09:13:52;;;;;;;0.10;0.10;;;;;;;40.36;24.87;96549.59;7390662;19;20006;-84
2023/10/21 09:16:27;;;;;;;0.10;0.10;;;;;;;40.18;24.58;96541.31;7387617;19;20010;-83
2023/10/21 09:18:56;;;;;;;0.17;0.10;;;;;;;40.09;24.84;96552.41;7392395;19;20373;-84
2023/10/21 09:21:45;;;;;;;0.10;0.10;;;;;;;40.21;24.75;96549.22;7388064;19;20016;-84
2023/10/21 09:24:19;;;;;;;0.90;0.40;;;;;;;40.11;25.04;96558.91;7391090;19;20018;-84
2023/10/21 09:26:47;;;;;;;0.10;0.10;;;;;;;39.76;24.66;96564.06;7391115;19;20014;-85
2023/10/21 09:29:20;;;;;;;0.10;0.00;;;;;;;39.43;24.81;96566.16;7392483;19;20018;-83
2023/10/21 09:31:54;;;;;;;0.63;0.47;;;;;;;39.19;25.22;96569.53;7388657;19;20482;-82
2023/10/21 09:34:24;;;;;;;0.00;0.00;;;;;;;39.29;25.25;96569.31;7386409;19;20105;-88
2023/10/21 09:36:54;;;;;;;0.10;0.10;;;;;;;39.25;24.94;96575.94;7386206;19;20021;-85
2023/10/21 09:39:22;;;;;;;0.10;0.10;;;;;;;39.03;25.29;96579.25;7388327;19;20014;-85
2023/10/21 09:41:48;;;;;;;0.28;0.20;;;;;;;39.25;25.14;96578.13;7387507;19;20041;-84
2023/10/21 09:44:15;;;;;;;1.30;0.50;;;;;;;39.06;25.33;96579.94;7392037;19;20737;-85
2023/10/21 09:46:46;;;;;;;0.22;0.22;;;;;;;39.01;25.16;96587.28;7388583;19;20010;-86
2023/10/21 09:49:14;;;;;;;0.70;0.30;;;;;;;38.75;25.67;96581.94;7388727;19;20006;-86
2023/10/21 09:52:04;;;;;;;0.10;0.10;;;;;;;39.34;25.13;96585.25;7390914;19;20016;-86
2023/10/21 09:54:43;;;;;;;0.40;0.40;;;;;;;33.99;28.96;96608.06;7388336;19;20021;-86
2023/10/21 09:57:11;;;;;;;0.77;0.55;;;;;;;32.67;30.21;96602.97;7389698;19;20420;-85
2023/10/21 09:59:38;;;;;;;1.25;0.28;;;;;;;30.38;32.65;96614.28;7391310;19;20532;-85
2023/10/21 10:02:06;;;;;;;0.22;0.20;;;;;;;30.14;33.19;96610.97;7392278;19;20044;-84
2023/10/21 10:04:35;;;;;;;0.25;0.25;;;;;;;28.61;35.21;96619.78;7391360;19;20031;-85
2023/10/21 10:07:08;;;;;;;0.10;0.10;;;;;;;27.98;36.31;96626.00;7391197;19;20769;-85
2023/10/21 10:09:36;;;;;;;0.60;0.60;;;;;;;28.88;34.91;96626.91;7389540;19;20014;-86
2023/10/21 10:12:14;;;;;;;0.45;0.38;;;;;;;29.84;34.56;96631.19;7389490;19;20013;-86
2023/10/21 10:14:41;;;;;;;2.60;0.45;;;;;;;31.95;32.63;96619.50;7388452;19;20018;-86
2023/10/21 10:17:07;;;;;;;0.10;0.10;;;;;;;32.48;31.60;96624.41;7388683;19;20015;-86
2023/10/21 10:19:37;;;;;;;0.98;0.63;;;;;;;29.98;33.70;96632.19;7368024;19;20015;-85
2023/10/21 10:22:29;;;;;;;2.10;0.20;;;;;;;28.27;35.53;96639.69;7389796;19;20010;-86
2023/10/21 10:25:05;;;;;;;0.82;0.75;;;;;;;29.26;35.16;96645.00;7389368;19;20516;-86
2023/10/21 10:27:41;;;;;;;0.20;0.20;;;;;;;29.51;35.21;96654.88;7387794;19;20010;-86
2023/10/21 10:30:30;;;;;;;0.10;0.10;;;;;;;28.89;35.52;96654.84;7392624;19;20041;-85
2023/10/21 10:33:01;;;;;;;0.20;0.10;;;;;;;29.25;35.86;96655.00;7389347;19;20115;-85
2023/10/21 10:35:30;;;;;;;;;;;;;;;29.07;35.71;96660.28;7384917;19;20007;-84
2023/10/21 10:37:59;;;;;;;0.43;0.30;;;;;;;28.87;35.65;96662.69;7386347;19;19923;-85
2023/10/21 10:40:33;;;;;;;1.75;0.35;;;;;;;28.65;36.28;96665.75;7383044;19;20021;-85
2023/10/21 10:43:00;;;;;;;0.85;0.10;;;;;;;30.27;35.07;96664.31;7383404;19;20006;-85
2023/10/21 10:45:26;;;;;;;0.47;0.38;;;;;;;28.96;35.62;96678.66;7384626;19;20010;-85
2023/10/21 10:48:00;;;;;;;0.20;0.20;;;;;;;28.85;35.98;96674.09;7386236;19;20017;-86
2023/10/21 10:50:26;;;;;;;0.10;0.03;;;;;;;27.83;37.49;96684.22;7387227;19;20472;-85
2023/10/21 10:52:55;;;;;;;0.10;0.10;;;;;;;28.34;36.32;96678.50;7387844;19;20011;-86
2023/10/21 10:55:23;;;;;;;0.10;0.10;;;;;;;28.62;36.04;96677.81;7385841;19;20011;-86
2023/10/21 10:57:51;;;;;;;0.32;0.25;;;;;;;28.46;36.40;96678.81;7387794;19;20018;-85
2023/10/21 11:00:20;;;;;;;0.10;0.10;;;;;;;28.16;37.07;96692.31;7390159;19;20032;-85
2023/10/21 11:02:48;;;;;;;0.20;0.20;;;;;;;26.28;39.62;96699.97;7393579;19;20022;-85
2023/10/21 11:05:21;;;;;;;0.10;0.08;;;;;;;26.11;40.26;96708.59;7396349;19;20015;-86
2023/10/21 11:07:49;;;;;;;0.10;0.10;;;;;;;26.18;40.19;96708.13;7393167;19;20010;-85
2023/10/21 11:10:20;;;;;;;0.63;0.40;;;;;;;27.00;38.82;96707.41;7396329;19;20053;-85
2023/10/21 11:12:49;;;;;;;4.38;0.30;;;;;;;26.23;40.15;96704.06;7393280;19;20017;-86
2023/10/21 11:15:16;;;;;;;0.10;0.00;;;;;;;25.94;40.33;96712.97;7394329;19;20027;-85
2023/10/21 11:17:46;;;;;;;0.15;0.15;;;;;;;26.51;40.41;96715.72;7393825;19;20006;-85
2023/10/21 11:20:14;;;;;;;0.10;0.00;;;;;;;27.18;39.51;96727.22;7375163;19;20022;-86
2023/10/21 11:22:42;;;;;;;0.10;0.00;;;;;;;26.92;39.64;96718.56;7394166;19;20020;-86
2023/10/21 11:25:08;;;;;;;0.10;0.03;;;;;;;27.18;39.78;96720.81;7394359;19;20046;-85
2023/10/21 11:27:37;;;;;;;0.10;0.10;;;;;;;27.55;39.25;96729.13;7391980;19;20467;-86
2023/10/21 11:30:07;;;;;;;0.10;0.00;;;;;;;26.40;40.74;96736.72;7395218;19;20030;-86
2023/10/21 11:32:36;;;;;;;0.10;0.08;;;;;;;26.40;41.09;96739.56;7394803;19;20011;-85
2023/10/21 11:35:04;;;;;;;0.10;0.00;;;;;;;25.36;42.59;96753.47;7393791;19;20407;-84